Portada
METAR-TAF:

METAR-TAF

Aeroports :

Sevilla, Espanya

latitud: 37-25N, longitud: 005-54W, altitud: 34 m

Observació

L'informe es va fer fa 30 minuts, a les 13:30 UTC
Vent 3 kt del Nord
Temperatura
Pressió 1017 hPa
Visibilitat 10 km o més
sense núvols per sota de 1500 mi sense presència de cumulonimbus.

METAR: LEZL 031330Z 36003KT CAVOK ///// Q1017 NOSIG

Hora: 16:00 (14:00 UTC)

Pronòstic

L'informe es va fer fa 6 hores i 0 minuts, a les 08:00 UTC
Pronòstic vàlid del 03 a les 09 UTC al 04 a les 09 UTC
Vent 3 kt amb direcció variable
Visibilitat 10 km o més
sense núvols per sota de 1500 mi sense presència de cumulonimbus.
Evolucionant progressivament
l' 03 a les 14 UTC al 03 a les 16 UTC
Vent 10 kt del Sud-Oest
Evolucionant progressivament
l' 03 a les 22 UTC al 03 a les 24 UTC
Vent 2 kt amb direcció variable

TAF: LEZL 030800Z 0309/0409 VRB03KT CAVOK TX37/0316Z TN18/0405Z BECMG 0314/0316 22010KT BECMG 0322/0324 VRB02KT

Observacions i pronòstics meteorològics de més de 4000 aeroports (METAR i TAF).

Les estacions disponibles són els punts grocs i vermells al mapa.

Posi el ratolí al punt desitjat per veure el nom de l'estació.

Feu clic per veure les observacions i els pronòstics meteorològics.

Per canviar el mapa: feu clic els botons verds amb una creu de color negre per apropar; al botó verd amb un guió per allunyar la imatge; o en les fletxes verdes per a mapes adjacents.


METAR-TAF: